Babson Park, Massachusetts
Current Conditions -  °F | °C
As of 3:53 AM on Monday 20 Oct 2014 (Local Time) from KOWD Reporting Station
Clear Clear  
Wind Chill: 34°   Ceiling: Unl
Heat Index: 38°   Visibility: 10mi
Dew Point: 25°   Wind: 5mph
Humidity: 60%   Direction: 270°W
Pressure: 30.01"   Gusts: NA
Location:  42.3°N, 71.26°W
Report Text: KOWD 200753Z AUTO 27004KT 10SM CLR 03/M04 A3001 RMK AO2 SLP161 T00331039
Loading
Personal Weather Stations






























Interactive Weather Map
Tropical Storm Tracking
New forecast layout! Learn more

10-Day Weather Forecast

Advertisements
Track Severe Weather on mobile